createdAt,value
2022-11-27T00:01:32.598Z,11.30
2022-11-27T00:03:59.816Z,11.20
2022-11-27T00:06:28.358Z,11.20
2022-11-27T00:09:04.009Z,11.20
2022-11-27T00:11:32.086Z,11.10
2022-11-27T00:13:59.684Z,11.20
2022-11-27T00:16:27.797Z,11.10
2022-11-27T00:18:54.662Z,11.00
2022-11-27T00:21:33.037Z,11.00
2022-11-27T00:24:01.830Z,10.90
2022-11-27T00:26:36.033Z,10.90
2022-11-27T00:29:05.067Z,10.80
2022-11-27T00:31:33.717Z,10.80
2022-11-27T00:34:03.569Z,10.70
2022-11-27T00:36:32.387Z,10.70
2022-11-27T00:38:59.422Z,10.60
2022-11-27T00:41:30.901Z,10.60
2022-11-27T00:43:58.029Z,10.50
2022-11-27T00:46:29.060Z,10.50
2022-11-27T00:48:57.674Z,10.50
2022-11-27T00:51:25.579Z,10.40
2022-11-27T00:53:53.290Z,10.40
2022-11-27T00:56:23.354Z,10.30
2022-11-27T00:58:50.827Z,10.50
2022-11-27T01:01:38.781Z,10.20
2022-11-27T01:04:07.527Z,10.20
2022-11-27T01:06:35.104Z,10.10
2022-11-27T01:09:02.291Z,10.10
2022-11-27T01:11:31.611Z,10.00
2022-11-27T01:14:01.805Z,10.00
2022-11-27T01:16:30.477Z,9.90
2022-11-27T01:18:59.056Z,9.90
2022-11-27T01:21:27.883Z,9.90
2022-11-27T01:23:55.231Z,9.90
2022-11-27T01:26:22.299Z,9.80
2022-11-27T01:28:52.338Z,9.80
2022-11-27T01:31:22.435Z,9.70
2022-11-27T01:33:53.540Z,9.70
2022-11-27T01:36:20.712Z,9.60
2022-11-27T01:38:47.505Z,9.60
2022-11-27T01:41:18.714Z,9.60
2022-11-27T01:43:55.454Z,9.50
2022-11-27T01:46:37.072Z,9.50
2022-11-27T01:49:10.053Z,9.50
2022-11-27T01:51:50.544Z,9.50
2022-11-27T01:54:19.071Z,9.50
2022-11-27T01:56:49.747Z,9.40
2022-11-27T01:59:18.155Z,9.40
2022-11-27T02:01:44.976Z,9.40
2022-11-27T02:04:12.233Z,9.40
2022-11-27T02:06:39.209Z,9.30
2022-11-27T02:09:06.326Z,9.30
2022-11-27T02:11:45.170Z,9.30
2022-11-27T02:14:28.268Z,9.20
2022-11-27T02:17:28.425Z,9.30
2022-11-27T02:20:16.963Z,9.20
2022-11-27T02:23:31.673Z,9.20
2022-11-27T02:26:13.759Z,9.10
2022-11-27T02:28:58.709Z,9.10
2022-11-27T02:31:28.679Z,9.10
2022-11-27T02:34:03.634Z,9.00
2022-11-27T02:36:33.034Z,12.10
2022-11-27T02:39:04.886Z,8.90
2022-11-27T02:41:44.697Z,8.90
2022-11-27T02:44:12.307Z,8.90
2022-11-27T02:46:40.238Z,8.80
2022-11-27T02:49:12.403Z,8.80
2022-11-27T02:51:44.983Z,8.80
2022-11-27T02:54:17.792Z,8.80
2022-11-27T02:56:48.152Z,8.70
2022-11-27T02:59:16.581Z,8.70
2022-11-27T03:01:46.232Z,8.70
2022-11-27T03:04:23.143Z,9.00
2022-11-27T03:06:55.320Z,8.70
2022-11-27T03:09:39.490Z,8.60
2022-11-27T03:12:08.635Z,8.60
2022-11-27T03:14:39.336Z,8.50
2022-11-27T03:17:47.503Z,8.50
2022-11-27T03:20:20.900Z,8.50
2022-11-27T03:22:47.789Z,8.40
2022-11-27T03:25:16.301Z,8.40
2022-11-27T03:27:54.519Z,8.40
2022-11-27T03:30:21.506Z,8.40
2022-11-27T03:32:48.382Z,8.30
2022-11-27T03:35:18.586Z,8.30
2022-11-27T03:37:45.775Z,8.30
2022-11-27T03:40:13.488Z,8.20
2022-11-27T03:43:25.196Z,8.20
2022-11-27T03:46:06.238Z,8.20
2022-11-27T03:48:43.348Z,8.20
2022-11-27T03:51:30.086Z,8.20
2022-11-27T03:54:25.074Z,8.10
2022-11-27T03:56:54.910Z,8.10
2022-11-27T03:59:26.291Z,8.40
2022-11-27T04:01:53.270Z,8.10
2022-11-27T04:04:20.142Z,8.10
2022-11-27T04:06:47.134Z,8.00
2022-11-27T04:09:13.943Z,5.80
2022-11-27T04:11:40.729Z,8.00
2022-11-27T04:14:07.649Z,8.00
2022-11-27T04:16:34.535Z,8.00
2022-11-27T04:19:01.409Z,7.90
2022-11-27T04:21:28.235Z,7.30
2022-11-27T04:23:54.969Z,7.90
2022-11-27T04:26:21.966Z,7.90
2022-11-27T04:28:48.754Z,7.90
2022-11-27T04:31:15.616Z,7.90
2022-11-27T04:33:42.555Z,7.80
2022-11-27T04:36:09.435Z,7.80
2022-11-27T04:38:36.239Z,7.80
2022-11-27T04:41:03.043Z,7.80
2022-11-27T04:43:29.875Z,7.90
2022-11-27T04:45:56.757Z,7.70
2022-11-27T04:48:23.527Z,7.70
2022-11-27T04:50:50.366Z,7.80
2022-11-27T04:53:17.133Z,7.70
2022-11-27T04:55:43.990Z,7.70
2022-11-27T04:58:10.809Z,10.60
2022-11-27T05:00:37.817Z,7.70
2022-11-27T05:03:04.725Z,7.60
2022-11-27T05:05:31.642Z,7.60
2022-11-27T05:07:58.533Z,7.60
2022-11-27T05:10:25.402Z,7.70
2022-11-27T05:12:52.253Z,7.60
2022-11-27T05:15:19.374Z,7.70
2022-11-27T05:17:46.154Z,7.60
2022-11-27T05:20:13.018Z,7.60
2022-11-27T05:22:39.951Z,7.50
2022-11-27T05:25:06.983Z,7.50
2022-11-27T05:27:33.814Z,7.50
2022-11-27T05:30:00.599Z,7.50
2022-11-27T05:32:27.444Z,7.50
2022-11-27T05:34:54.316Z,7.50
2022-11-27T05:37:21.198Z,7.40
2022-11-27T05:39:48.043Z,7.40
2022-11-27T05:42:14.853Z,7.40
2022-11-27T05:44:41.914Z,9.40
2022-11-27T05:47:09.079Z,7.40
2022-11-27T05:49:36.666Z,7.40
2022-11-27T05:52:03.530Z,7.30
2022-11-27T05:54:30.308Z,7.30
2022-11-27T05:56:57.135Z,7.30
2022-11-27T05:59:24.022Z,7.30
2022-11-27T06:01:50.968Z,7.50
2022-11-27T06:04:18.075Z,7.30
2022-11-27T06:06:44.871Z,7.30
2022-11-27T06:09:13.368Z,7.30
2022-11-27T06:11:41.559Z,7.30
2022-11-27T06:14:10.019Z,7.20
2022-11-27T06:16:36.947Z,7.20
2022-11-27T06:19:04.358Z,7.20
2022-11-27T06:21:31.388Z,7.30
2022-11-27T06:23:58.223Z,7.30
2022-11-27T06:26:28.207Z,7.40
2022-11-27T06:28:56.810Z,7.30
2022-11-27T06:31:26.347Z,7.30
2022-11-27T06:33:55.465Z,7.30
2022-11-27T06:36:43.607Z,7.30
2022-11-27T06:39:11.916Z,7.40
2022-11-27T06:41:38.785Z,7.50
2022-11-27T06:44:05.731Z,7.40
2022-11-27T06:46:32.527Z,7.50
2022-11-27T06:48:59.583Z,7.50
2022-11-27T06:51:28.787Z,7.50
2022-11-27T06:53:58.727Z,7.50
2022-11-27T06:56:27.730Z,7.50
2022-11-27T06:58:57.301Z,7.60
2022-11-27T07:01:26.291Z,7.60
2022-11-27T07:03:53.400Z,7.80
2022-11-27T07:06:22.859Z,7.60
2022-11-27T07:08:50.238Z,7.60
2022-11-27T07:11:22.853Z,9.20
2022-11-27T07:13:50.788Z,7.80
2022-11-27T07:16:18.695Z,7.80
2022-11-27T07:18:51.011Z,7.80
2022-11-27T07:21:17.862Z,7.80
2022-11-27T07:23:45.353Z,7.80
2022-11-27T07:26:24.054Z,7.80
2022-11-27T07:28:51.392Z,7.80
2022-11-27T07:31:24.002Z,7.80
2022-11-27T07:33:52.627Z,7.80
2022-11-27T07:36:22.295Z,7.90
2022-11-27T07:38:49.851Z,8.30
2022-11-27T07:41:17.806Z,8.00
2022-11-27T07:43:45.127Z,8.00
2022-11-27T07:46:18.437Z,8.00
2022-11-27T07:48:45.751Z,8.20
2022-11-27T07:51:15.440Z,8.10
2022-11-27T07:53:43.175Z,8.10
2022-11-27T07:56:12.038Z,8.20
2022-11-27T07:58:39.010Z,8.20
2022-11-27T08:01:08.449Z,8.20
2022-11-27T08:03:35.771Z,8.20
2022-11-27T08:06:02.579Z,8.30
2022-11-27T08:08:29.527Z,8.30
2022-11-27T08:10:56.329Z,8.40
2022-11-27T08:13:23.161Z,8.30
2022-11-27T08:15:50.020Z,8.60
2022-11-27T08:18:17.024Z,8.40
2022-11-27T08:20:43.819Z,8.40
2022-11-27T08:23:10.819Z,8.40
2022-11-27T08:25:38.398Z,8.50
2022-11-27T08:28:05.291Z,8.50
2022-11-27T08:30:32.196Z,8.50
2022-11-27T08:32:58.986Z,8.60
2022-11-27T08:35:25.780Z,8.60
2022-11-27T08:37:52.761Z,8.60
2022-11-27T08:40:19.715Z,8.70
2022-11-27T08:42:46.531Z,8.70
2022-11-27T08:45:13.819Z,9.00
2022-11-27T08:47:40.739Z,8.80
2022-11-27T08:50:08.266Z,8.80
2022-11-27T08:52:35.087Z,8.80
2022-11-27T08:55:01.951Z,8.80
2022-11-27T08:57:28.720Z,8.90
2022-11-27T08:59:55.614Z,8.90
2022-11-27T09:02:22.402Z,8.90
2022-11-27T09:04:49.212Z,8.90
2022-11-27T09:07:16.717Z,8.90
2022-11-27T09:09:43.944Z,8.90
2022-11-27T09:12:10.751Z,8.80
2022-11-27T09:14:37.842Z,8.80
2022-11-27T09:17:04.869Z,8.80
2022-11-27T09:19:31.695Z,8.90
2022-11-27T09:21:59.481Z,8.90
2022-11-27T09:24:26.352Z,8.90
2022-11-27T09:26:53.196Z,8.90
2022-11-27T09:29:20.051Z,8.90
2022-11-27T09:31:46.920Z,8.90
2022-11-27T09:34:14.861Z,9.00
2022-11-27T09:36:41.633Z,9.00
2022-11-27T09:39:08.414Z,9.00
2022-11-27T09:41:39.378Z,9.00
2022-11-27T09:44:43.529Z,9.20
2022-11-27T09:47:28.266Z,9.00
2022-11-27T09:50:22.554Z,9.00
2022-11-27T09:53:01.356Z,9.00
2022-11-27T09:55:41.686Z,9.00
2022-11-27T09:58:28.836Z,9.00
2022-11-27T10:00:55.853Z,9.00
2022-11-27T10:03:27.531Z,9.10
2022-11-27T10:06:10.631Z,9.00
2022-11-27T10:08:56.513Z,9.00
2022-11-27T10:11:35.468Z,9.00
2022-11-27T10:14:38.110Z,9.10
2022-11-27T10:17:24.641Z,9.10
2022-11-27T10:20:10.133Z,9.20
2022-11-27T10:22:47.609Z,9.20
2022-11-27T10:25:28.284Z,9.30
2022-11-27T10:28:23.545Z,9.30
2022-11-27T10:30:57.463Z,9.30
2022-11-27T10:33:29.663Z,9.40
2022-11-27T10:35:56.992Z,9.50
2022-11-27T10:38:26.951Z,9.40
2022-11-27T10:41:47.769Z,9.70
2022-11-27T10:44:23.864Z,9.50
2022-11-27T10:46:55.239Z,9.60
2022-11-27T10:49:22.027Z,9.60
2022-11-27T10:51:48.795Z,9.60
2022-11-27T10:54:26.091Z,9.60
2022-11-27T10:57:21.936Z,9.60
2022-11-27T11:00:06.700Z,9.60
2022-11-27T11:02:37.245Z,9.60
2022-11-27T11:08:19.160Z,9.70
2022-11-27T11:10:59.437Z,9.70
2022-11-27T11:13:47.655Z,9.70
2022-11-27T11:16:24.347Z,9.70
2022-11-27T11:18:53.923Z,9.70
2022-11-27T11:21:40.524Z,9.70
2022-11-27T11:24:14.392Z,9.70
2022-11-27T11:26:47.579Z,9.80
2022-11-27T11:29:34.545Z,9.80
2022-11-27T11:32:11.126Z,9.80
2022-11-27T11:34:46.828Z,9.90
2022-11-27T11:37:44.427Z,9.90
2022-11-27T11:40:16.233Z,9.90
2022-11-27T11:43:01.440Z,10.00
2022-11-27T11:45:32.863Z,10.00
2022-11-27T11:48:26.929Z,10.10
2022-11-27T11:50:55.510Z,10.10
2022-11-27T11:53:38.871Z,10.20
2022-11-27T11:56:37.940Z,10.20
2022-11-27T11:59:13.728Z,10.30
2022-11-27T12:02:16.480Z,10.30
2022-11-27T12:05:06.263Z,10.40
2022-11-27T12:07:51.813Z,10.50
2022-11-27T12:10:43.044Z,10.50
2022-11-27T12:13:33.341Z,10.50
2022-11-27T12:16:21.438Z,10.60
2022-11-27T12:19:00.845Z,10.60
2022-11-27T12:21:40.299Z,10.60
2022-11-27T12:24:21.808Z,10.50
2022-11-27T12:27:17.892Z,10.50
2022-11-27T12:30:14.455Z,10.40
2022-11-27T12:33:00.625Z,10.40
2022-11-27T12:35:54.717Z,10.40
2022-11-27T12:38:38.870Z,10.30
2022-11-27T12:41:43.287Z,10.30
2022-11-27T12:44:30.573Z,10.30
2022-11-27T12:47:26.388Z,10.30
2022-11-27T12:50:01.065Z,10.20
2022-11-27T12:52:41.796Z,10.20
2022-11-27T12:55:27.912Z,10.20
2022-11-27T12:58:03.531Z,10.10
2022-11-27T13:00:32.791Z,10.10
2022-11-27T13:03:21.179Z,10.10
2022-11-27T13:05:53.851Z,10.10
2022-11-27T13:08:26.490Z,10.00
2022-11-27T13:11:04.950Z,10.10
2022-11-27T13:13:37.585Z,10.00
2022-11-27T13:16:05.783Z,10.00
2022-11-27T13:18:45.062Z,10.30
2022-11-27T13:21:25.117Z,10.10
2022-11-27T13:23:52.371Z,10.10
2022-11-27T13:26:30.276Z,10.20
2022-11-27T13:29:05.344Z,10.20
2022-11-27T13:31:37.538Z,10.20
2022-11-27T13:34:15.742Z,10.20
2022-11-27T13:36:46.375Z,10.20
2022-11-27T13:39:30.075Z,10.20
2022-11-27T13:42:05.890Z,10.20
2022-11-27T13:44:37.134Z,10.20
2022-11-27T13:47:15.206Z,10.20
2022-11-27T13:49:43.478Z,10.20
2022-11-27T13:52:16.626Z,10.20
2022-11-27T13:55:00.628Z,10.20
2022-11-27T13:57:29.575Z,10.20
2022-11-27T14:00:05.179Z,10.20
2022-11-27T14:02:50.801Z,10.30
2022-11-27T14:05:33.991Z,10.40
2022-11-27T14:08:01.071Z,10.30
2022-11-27T14:10:32.217Z,10.40
2022-11-27T14:13:08.357Z,10.40
2022-11-27T14:15:36.434Z,10.40
2022-11-27T14:18:19.669Z,10.50
2022-11-27T14:20:51.029Z,10.50
2022-11-27T14:23:37.974Z,10.50
2022-11-27T14:26:20.809Z,10.60
2022-11-27T14:28:54.838Z,10.50
2022-11-27T14:31:31.453Z,10.50
2022-11-27T14:34:15.293Z,10.60
2022-11-27T14:36:43.747Z,10.60
2022-11-27T14:39:31.521Z,10.60
2022-11-27T14:42:07.849Z,10.60
2022-11-27T14:44:35.140Z,10.60
2022-11-27T14:47:05.480Z,10.70
2022-11-27T14:49:33.723Z,10.80
2022-11-27T14:52:04.415Z,10.70
2022-11-27T14:54:39.222Z,10.70
2022-11-27T14:57:10.990Z,10.80
2022-11-27T14:59:38.144Z,10.60
2022-11-27T15:02:14.254Z,10.60
2022-11-27T15:04:42.138Z,10.70
2022-11-27T15:07:29.433Z,10.70
2022-11-27T15:09:58.884Z,10.60
2022-11-27T15:12:31.992Z,10.70
2022-11-27T15:15:03.520Z,10.50
2022-11-27T15:17:33.491Z,10.50
2022-11-27T15:20:02.511Z,10.50
2022-11-27T15:22:29.889Z,10.50
2022-11-27T15:25:00.524Z,10.50
2022-11-27T15:27:27.707Z,10.40
2022-11-27T15:30:16.926Z,10.40
2022-11-27T15:32:53.744Z,10.40
2022-11-27T15:35:25.738Z,10.40
2022-11-27T15:37:54.439Z,10.50
2022-11-27T15:40:29.758Z,10.40
2022-11-27T15:42:56.797Z,10.40
2022-11-27T15:45:26.935Z,10.40
2022-11-27T15:47:59.422Z,10.40
2022-11-27T15:50:26.921Z,10.40
2022-11-27T15:52:54.027Z,10.40
2022-11-27T15:55:21.053Z,10.40
2022-11-27T15:57:48.173Z,10.50
2022-11-27T16:00:15.460Z,10.40
2022-11-27T16:02:42.626Z,10.40
2022-11-27T16:05:09.815Z,10.40
2022-11-27T16:07:37.662Z,10.40
2022-11-27T16:10:05.546Z,10.40
2022-11-27T16:12:32.523Z,10.40
2022-11-27T16:14:59.409Z,10.40
2022-11-27T16:17:26.334Z,10.40
2022-11-27T16:19:53.088Z,10.40
2022-11-27T16:22:19.971Z,10.40
2022-11-27T16:24:46.783Z,10.40
2022-11-27T16:27:13.601Z,10.50
2022-11-27T16:29:40.710Z,10.40
2022-11-27T16:32:08.023Z,10.40
2022-11-27T16:34:35.684Z,10.40
2022-11-27T16:37:03.579Z,10.40
2022-11-27T16:39:30.417Z,10.40
2022-11-27T16:41:57.404Z,10.60
2022-11-27T16:44:24.530Z,10.40
2022-11-27T16:46:53.623Z,8.70
2022-11-27T16:49:21.751Z,10.40
2022-11-27T16:51:50.048Z,10.40
2022-11-27T16:54:17.426Z,10.50
2022-11-27T16:56:46.087Z,10.40
2022-11-27T16:59:15.146Z,10.40
2022-11-27T17:01:43.673Z,10.50
2022-11-27T17:04:18.154Z,10.40
2022-11-27T17:06:46.183Z,10.40
2022-11-27T17:09:13.680Z,10.40
2022-11-27T17:11:48.454Z,10.40
2022-11-27T17:14:16.293Z,10.60
2022-11-27T17:16:43.433Z,10.50
2022-11-27T17:19:15.919Z,10.50
2022-11-27T17:21:44.880Z,10.50
2022-11-27T17:24:16.079Z,10.50
2022-11-27T17:26:46.207Z,10.50
2022-11-27T17:29:15.344Z,10.50
2022-11-27T17:31:42.991Z,10.50
2022-11-27T17:34:13.242Z,10.50
2022-11-27T17:36:42.083Z,10.50
2022-11-27T17:39:10.907Z,10.70
2022-11-27T17:41:37.942Z,10.50
2022-11-27T17:44:07.752Z,10.60
2022-11-27T17:46:36.256Z,12.10
2022-11-27T17:49:06.058Z,10.50
2022-11-27T17:51:35.125Z,10.50
2022-11-27T17:54:03.428Z,10.50
2022-11-27T17:56:32.363Z,10.50
2022-11-27T17:59:02.385Z,10.50
2022-11-27T18:01:30.250Z,10.50
2022-11-27T18:04:00.615Z,10.50
2022-11-27T18:06:30.497Z,10.70
2022-11-27T18:08:58.581Z,10.50
2022-11-27T18:11:28.465Z,10.50
2022-11-27T18:13:58.341Z,10.50
2022-11-27T18:16:31.763Z,10.50
2022-11-27T18:18:59.498Z,10.60
2022-11-27T18:21:27.277Z,10.50
2022-11-27T18:24:25.654Z,10.50
2022-11-27T18:29:29.241Z,10.60
2022-11-27T18:31:56.126Z,10.50
2022-11-27T18:34:24.291Z,10.70
2022-11-27T18:36:54.110Z,10.50
2022-11-27T18:39:21.714Z,10.50
2022-11-27T18:41:48.536Z,10.50
2022-11-27T18:44:15.397Z,10.50
2022-11-27T18:46:42.607Z,10.60
2022-11-27T18:49:10.563Z,10.50
2022-11-27T18:51:37.799Z,10.50
2022-11-27T18:54:04.961Z,10.70
2022-11-27T18:56:32.494Z,10.50
2022-11-27T18:59:04.442Z,10.50
2022-11-27T19:01:41.230Z,10.60
2022-11-27T19:04:10.784Z,10.60
2022-11-27T19:06:42.741Z,10.60
2022-11-27T19:09:15.449Z,10.60
2022-11-27T19:11:43.333Z,10.60
2022-11-27T19:14:10.212Z,10.60
2022-11-27T19:16:46.325Z,10.60
2022-11-27T19:19:52.710Z,10.60
2022-11-27T19:22:07.270Z,10.60
2022-11-27T19:24:34.136Z,10.60
2022-11-27T19:27:00.943Z,10.70
2022-11-27T19:29:29.007Z,10.90
2022-11-27T19:31:58.447Z,10.70
2022-11-27T19:34:26.444Z,10.70
2022-11-27T19:36:54.094Z,10.70
2022-11-27T19:39:21.348Z,10.70
2022-11-27T19:41:49.392Z,10.70
2022-11-27T19:44:17.786Z,10.70
2022-11-27T19:46:46.415Z,10.70
2022-11-27T19:49:17.568Z,10.90
2022-11-27T19:51:45.692Z,10.90
2022-11-27T19:54:14.871Z,10.90
2022-11-27T19:56:43.021Z,10.80
2022-11-27T19:59:11.536Z,10.80
2022-11-27T20:01:40.848Z,10.80
2022-11-27T20:04:10.460Z,10.80
2022-11-27T20:06:39.965Z,10.80
2022-11-27T20:09:08.047Z,10.80
2022-11-27T20:11:36.325Z,10.80
2022-11-27T20:14:06.596Z,10.80
2022-11-27T20:16:34.558Z,10.90
2022-11-27T20:19:02.571Z,10.90
2022-11-27T20:21:29.471Z,10.90
2022-11-27T20:23:58.401Z,10.90
2022-11-27T20:26:28.497Z,10.90
2022-11-27T20:28:56.796Z,10.90
2022-11-27T20:31:30.268Z,10.90
2022-11-27T20:34:01.007Z,10.80
2022-11-27T20:36:29.475Z,8.50
2022-11-27T20:38:59.913Z,10.80
2022-11-27T20:41:28.259Z,10.80
2022-11-27T20:43:59.368Z,10.80
2022-11-27T20:46:27.617Z,10.90
2022-11-27T20:48:55.329Z,10.80
2022-11-27T20:51:30.201Z,10.80
2022-11-27T20:54:01.170Z,10.70
2022-11-27T20:56:30.900Z,10.90
2022-11-27T20:58:58.697Z,10.70
2022-11-27T21:01:34.172Z,10.70
2022-11-27T21:04:09.149Z,10.70
2022-11-27T21:06:43.547Z,10.70
2022-11-27T21:09:13.773Z,10.70
2022-11-27T21:11:41.701Z,10.70
2022-11-27T21:14:11.970Z,10.80
2022-11-27T21:16:43.376Z,10.70
2022-11-27T21:19:18.497Z,10.70
2022-11-27T21:21:45.574Z,10.70
2022-11-27T21:24:13.227Z,10.70
2022-11-27T21:26:41.497Z,10.70
2022-11-27T21:29:08.762Z,10.70
2022-11-27T21:31:37.968Z,10.70
2022-11-27T21:34:07.548Z,10.70
2022-11-27T21:36:36.807Z,10.70
2022-11-27T21:39:07.118Z,10.70
2022-11-27T21:41:35.118Z,10.70
2022-11-27T21:44:03.084Z,10.90
2022-11-27T21:46:31.035Z,10.70
2022-11-27T21:49:00.509Z,10.70
2022-11-27T21:51:30.131Z,10.70
2022-11-27T21:53:59.300Z,10.70
2022-11-27T21:56:28.159Z,10.70
2022-11-27T21:58:55.031Z,10.70
2022-11-27T22:01:24.695Z,10.70
2022-11-27T22:03:54.174Z,10.80
2022-11-27T22:06:22.189Z,10.70
2022-11-27T22:08:51.031Z,10.60
2022-11-27T22:11:21.083Z,10.70
2022-11-27T22:13:49.133Z,10.70
2022-11-27T22:16:19.267Z,10.70
2022-11-27T22:18:48.012Z,10.90
2022-11-27T22:21:15.806Z,10.70
2022-11-27T22:23:43.643Z,10.70
2022-11-27T22:26:14.180Z,10.70
2022-11-27T22:28:41.346Z,10.70
2022-11-27T22:31:21.566Z,10.70
2022-11-27T22:33:49.653Z,10.70
2022-11-27T22:36:22.703Z,10.60
2022-11-27T22:38:52.551Z,10.70
2022-11-27T22:41:23.247Z,10.70
2022-11-27T22:43:50.413Z,10.70
2022-11-27T22:46:21.363Z,10.70
2022-11-27T22:48:53.817Z,10.60
2022-11-27T22:51:21.380Z,10.90
2022-11-27T22:53:48.573Z,10.70
2022-11-27T22:56:15.436Z,10.70
2022-11-27T22:58:42.943Z,10.60
2022-11-27T23:01:15.575Z,10.80
2022-11-27T23:03:43.068Z,10.60
2022-11-27T23:06:16.057Z,10.60
2022-11-27T23:08:44.714Z,10.60
2022-11-27T23:11:25.241Z,10.60
2022-11-27T23:13:53.981Z,10.70
2022-11-27T23:16:21.433Z,10.60
2022-11-27T23:18:48.755Z,10.60
2022-11-27T23:21:18.405Z,10.80
2022-11-27T23:23:46.063Z,10.60
2022-11-27T23:26:21.408Z,10.60
2022-11-27T23:28:50.423Z,10.60
2022-11-27T23:31:35.924Z,10.50
2022-11-27T23:34:10.129Z,10.50
2022-11-27T23:36:37.060Z,10.70
2022-11-27T23:39:06.502Z,10.50
2022-11-27T23:41:33.335Z,10.50
2022-11-27T23:44:01.558Z,10.70
2022-11-27T23:46:29.803Z,10.50
2022-11-27T23:48:59.387Z,10.40
2022-11-27T23:51:30.002Z,10.50
2022-11-27T23:53:57.762Z,10.50
2022-11-27T23:56:27.102Z,10.50
2022-11-27T23:58:55.538Z,10.40
